createdAt,value
2023-02-14T00:01:26.679Z,17.80
2023-02-14T00:03:54.650Z,19.50
2023-02-14T00:06:22.423Z,16.90
2023-02-14T00:08:52.287Z,14.90
2023-02-14T00:11:20.754Z,14.50
2023-02-14T00:14:07.299Z,15.50
2023-02-14T00:16:35.063Z,19.20
2023-02-14T00:19:05.828Z,14.80
2023-02-14T00:21:36.112Z,17.90
2023-02-14T00:24:06.198Z,17.80
2023-02-14T00:26:34.391Z,17.20
2023-02-14T00:29:02.151Z,17.30
2023-02-14T00:31:30.036Z,15.80
2023-02-14T00:33:57.923Z,16.40
2023-02-14T00:36:25.843Z,17.30
2023-02-14T00:38:53.517Z,15.70
2023-02-14T00:41:21.619Z,17.70
2023-02-14T00:43:53.430Z,17.90
2023-02-14T00:46:22.436Z,17.00
2023-02-14T00:48:50.923Z,17.60
2023-02-14T00:51:19.481Z,18.00
2023-02-14T00:53:48.846Z,16.10
2023-02-14T00:56:18.209Z,13.80
2023-02-14T00:58:46.276Z,16.00
2023-02-14T01:01:15.397Z,15.50
2023-02-14T01:03:43.107Z,15.20
2023-02-14T01:06:10.918Z,15.70
2023-02-14T01:08:38.907Z,13.90
2023-02-14T01:11:10.976Z,15.70
2023-02-14T01:13:39.339Z,15.50
2023-02-14T01:16:09.892Z,15.50
2023-02-14T01:18:38.019Z,17.00
2023-02-14T01:21:20.267Z,14.70
2023-02-14T01:23:52.692Z,16.40
2023-02-14T01:26:21.618Z,15.30
2023-02-14T01:28:49.637Z,14.20
2023-02-14T01:31:23.657Z,14.20
2023-02-14T01:33:52.028Z,13.80
2023-02-14T01:36:23.867Z,13.90
2023-02-14T01:41:20.917Z,15.90
2023-02-14T01:43:51.467Z,16.90
2023-02-14T01:46:19.538Z,15.50
2023-02-14T01:48:47.480Z,13.10
2023-02-14T01:51:16.335Z,19.30
2023-02-14T01:53:44.046Z,14.40
2023-02-14T01:56:22.277Z,15.90
2023-02-14T01:58:52.591Z,14.50
2023-02-14T02:01:20.946Z,14.30
2023-02-14T02:03:53.937Z,14.70
2023-02-14T02:06:26.234Z,15.10
2023-02-14T02:11:31.125Z,15.30
2023-02-14T02:13:58.786Z,14.60
2023-02-14T02:16:38.578Z,14.30
2023-02-14T02:19:12.991Z,12.90
2023-02-14T02:22:05.799Z,13.60
2023-02-14T02:24:45.446Z,15.40
2023-02-14T02:27:29.339Z,18.40
2023-02-14T02:30:48.437Z,13.60
2023-02-14T02:33:54.688Z,13.80
2023-02-14T02:36:46.496Z,14.00
2023-02-14T02:39:53.640Z,13.50
2023-02-14T02:42:32.490Z,15.10
2023-02-14T02:46:03.121Z,12.70
2023-02-14T02:48:44.742Z,15.10
2023-02-14T02:51:39.046Z,15.30
2023-02-14T02:54:13.214Z,17.70
2023-02-14T02:56:53.361Z,13.30
2023-02-14T02:59:30.688Z,17.20
2023-02-14T03:02:18.653Z,13.00
2023-02-14T03:04:56.361Z,15.20
2023-02-14T03:07:37.189Z,17.70
2023-02-14T03:10:14.184Z,12.90
2023-02-14T03:13:00.468Z,14.20
2023-02-14T03:15:32.939Z,13.40
2023-02-14T03:18:00.737Z,13.60
2023-02-14T03:20:55.964Z,15.00
2023-02-14T03:23:29.238Z,13.30
2023-02-14T03:26:08.934Z,12.30
2023-02-14T03:28:48.110Z,13.60
2023-02-14T03:31:30.364Z,13.00
2023-02-14T03:36:58.328Z,13.00
2023-02-14T03:40:00.488Z,12.90
2023-02-14T03:42:35.534Z,15.10
2023-02-14T03:45:06.695Z,14.50
2023-02-14T03:47:36.606Z,14.80
2023-02-14T03:50:17.722Z,14.30
2023-02-14T03:52:47.243Z,15.30
2023-02-14T03:55:17.069Z,15.90
2023-02-14T03:57:59.721Z,13.80
2023-02-14T04:00:28.771Z,16.50
2023-02-14T04:03:01.075Z,16.60
2023-02-14T04:05:28.857Z,15.20
2023-02-14T04:07:58.512Z,13.70
2023-02-14T04:10:26.665Z,16.40
2023-02-14T04:12:54.568Z,18.10
2023-02-14T04:15:22.242Z,14.90
2023-02-14T04:18:08.695Z,15.00
2023-02-14T04:20:37.360Z,16.70
2023-02-14T04:23:05.061Z,14.20
2023-02-14T04:25:32.985Z,17.80
2023-02-14T04:28:00.753Z,14.50
2023-02-14T04:30:28.461Z,16.80
2023-02-14T04:32:56.309Z,16.80
2023-02-14T04:35:24.082Z,17.80
2023-02-14T04:37:52.819Z,19.00
2023-02-14T04:40:20.546Z,17.80
2023-02-14T04:42:48.486Z,16.10
2023-02-14T04:45:16.237Z,16.10
2023-02-14T04:47:44.029Z,15.00
2023-02-14T04:50:12.299Z,16.50
2023-02-14T04:52:40.617Z,16.30
2023-02-14T04:55:09.442Z,14.30
2023-02-14T04:57:37.351Z,15.80
2023-02-14T05:00:08.226Z,16.60
2023-02-14T05:02:37.289Z,24.50
2023-02-14T05:05:05.311Z,17.00
2023-02-14T05:07:33.016Z,18.90
2023-02-14T05:10:00.814Z,19.70
2023-02-14T05:12:29.039Z,16.50
2023-02-14T05:14:57.629Z,20.70
2023-02-14T05:17:25.472Z,16.90
2023-02-14T05:19:53.341Z,19.40
2023-02-14T05:22:21.039Z,17.40
2023-02-14T05:24:48.754Z,16.90
2023-02-14T05:27:16.444Z,15.60
2023-02-14T05:29:44.083Z,16.10
2023-02-14T05:32:11.793Z,21.30
2023-02-14T05:34:39.546Z,16.90
2023-02-14T05:37:07.221Z,16.20
2023-02-14T05:39:34.941Z,15.50
2023-02-14T05:42:03.224Z,17.00
2023-02-14T05:44:30.977Z,15.70
2023-02-14T05:46:58.713Z,15.10
2023-02-14T05:49:26.393Z,15.60
2023-02-14T05:51:54.053Z,16.90
2023-02-14T05:54:21.717Z,19.40
2023-02-14T05:56:49.572Z,18.30
2023-02-14T05:59:17.274Z,18.40
2023-02-14T06:01:44.946Z,16.20
2023-02-14T06:04:12.642Z,15.50
2023-02-14T06:06:40.376Z,15.00
2023-02-14T06:09:08.100Z,14.40
2023-02-14T06:11:35.995Z,11.80
2023-02-14T06:14:04.042Z,11.30
2023-02-14T06:16:32.042Z,13.20
2023-02-14T06:19:00.361Z,16.70
2023-02-14T06:21:28.294Z,10.20
2023-02-14T06:23:56.214Z,9.70
2023-02-14T06:26:27.900Z,12.10
2023-02-14T06:28:57.171Z,10.30
2023-02-14T06:31:25.831Z,13.50
2023-02-14T06:33:54.301Z,15.90
2023-02-14T06:36:22.923Z,12.50
2023-02-14T06:38:50.663Z,14.30
2023-02-14T06:41:18.616Z,10.70
2023-02-14T06:43:50.440Z,16.10
2023-02-14T06:46:19.045Z,14.80
2023-02-14T06:48:47.308Z,12.40
2023-02-14T06:51:15.028Z,13.60
2023-02-14T06:53:42.693Z,12.80
2023-02-14T07:04:18.873Z,12.50
2023-02-14T07:08:10.977Z,11.70
2023-02-14T07:11:26.983Z,12.90
2023-02-14T07:14:05.261Z,14.50
2023-02-14T07:16:39.544Z,10.50
2023-02-14T07:19:12.801Z,12.40
2023-02-14T07:25:29.983Z,14.40
2023-02-14T07:29:35.091Z,15.80
2023-02-14T07:36:36.305Z,20.30
2023-02-14T07:55:11.855Z,13.60
2023-02-14T07:58:56.153Z,17.70
2023-02-14T08:01:53.456Z,11.30
2023-02-14T08:04:25.512Z,15.10
2023-02-14T08:07:52.906Z,12.40
2023-02-14T08:10:39.841Z,12.90
2023-02-14T08:13:25.922Z,16.70
2023-02-14T08:16:34.036Z,11.80
2023-02-14T08:19:24.450Z,11.20
2023-02-14T08:23:04.916Z,11.10
2023-02-14T08:26:30.204Z,10.60
2023-02-14T08:33:38.975Z,10.90
2023-02-14T08:40:08.840Z,14.50
2023-02-14T08:46:46.263Z,15.90
2023-02-14T08:53:47.810Z,18.50
2023-02-14T08:56:38.491Z,17.40
2023-02-14T15:16:07.032Z,7.50
2023-02-14T18:53:45.036Z,14.30
2023-02-14T19:50:09.242Z,17.10
2023-02-14T19:52:37.214Z,19.00
2023-02-14T19:55:05.124Z,19.60
2023-02-14T19:57:32.842Z,17.50
2023-02-14T20:00:00.707Z,20.80
2023-02-14T20:02:28.487Z,20.30
2023-02-14T20:04:59.297Z,22.10
2023-02-14T20:07:26.951Z,20.70
2023-02-14T20:09:54.945Z,20.00
2023-02-14T20:12:22.613Z,24.20
2023-02-14T20:14:54.087Z,27.90
2023-02-14T20:17:21.847Z,25.60
2023-02-14T20:19:49.626Z,32.10
2023-02-14T20:22:17.344Z,29.70
2023-02-14T20:24:45.114Z,32.00
2023-02-14T20:27:12.817Z,29.00
2023-02-14T20:29:43.243Z,26.80
2023-02-14T20:32:13.102Z,27.60
2023-02-14T20:34:40.802Z,26.40
2023-02-14T20:37:11.239Z,30.20
2023-02-14T20:39:39.058Z,28.60
2023-02-14T20:42:08.547Z,29.00
2023-02-14T20:44:36.467Z,23.20
2023-02-14T20:47:05.538Z,20.40
2023-02-14T20:49:35.635Z,22.90
2023-02-14T20:52:03.899Z,19.60
2023-02-14T20:54:31.606Z,23.10
2023-02-14T20:56:59.448Z,23.00
2023-02-14T20:59:28.157Z,22.50
2023-02-14T21:01:57.459Z,22.30
2023-02-14T21:04:25.592Z,20.90
2023-02-14T21:06:53.448Z,19.70
2023-02-14T21:09:21.244Z,19.80
2023-02-14T21:11:50.246Z,20.10
2023-02-14T21:14:17.877Z,19.40
2023-02-14T21:16:45.569Z,18.30
2023-02-14T21:19:13.294Z,18.90
2023-02-14T21:21:41.183Z,22.40
2023-02-14T21:24:14.665Z,24.70
2023-02-14T21:26:42.847Z,20.90
2023-02-14T21:29:10.932Z,25.10
2023-02-14T21:31:39.399Z,27.60
2023-02-14T21:34:07.179Z,22.90
2023-02-14T21:36:35.932Z,25.10
2023-02-14T21:39:05.387Z,28.50
2023-02-14T21:41:33.891Z,26.50
2023-02-14T21:44:03.282Z,28.40
2023-02-14T21:46:33.081Z,28.20
2023-02-14T21:49:20.680Z,29.20
2023-02-14T21:51:48.688Z,31.10
2023-02-14T21:54:17.564Z,30.70
2023-02-14T21:56:45.972Z,35.00
2023-02-14T21:59:13.756Z,29.40
2023-02-14T22:01:42.216Z,33.30
2023-02-14T22:04:12.314Z,33.00
2023-02-14T22:06:41.656Z,32.40
2023-02-14T22:09:11.024Z,35.30
2023-02-14T22:11:38.862Z,35.40
2023-02-14T22:14:06.586Z,32.00
2023-02-14T22:16:36.789Z,37.10
2023-02-14T22:19:06.166Z,34.30
2023-02-14T22:21:34.700Z,35.60
2023-02-14T22:24:02.389Z,31.70
2023-02-14T22:26:34.592Z,40.00
2023-02-14T22:29:03.147Z,42.10
2023-02-14T22:31:38.829Z,39.80
2023-02-14T22:34:08.246Z,41.80
2023-02-14T22:36:36.005Z,39.40
2023-02-14T22:39:04.286Z,44.30
2023-02-14T22:41:37.492Z,41.50
2023-02-14T22:44:06.016Z,49.60
2023-02-14T22:46:36.598Z,41.80
2023-02-14T22:49:05.877Z,43.40
2023-02-14T22:51:35.708Z,40.80
2023-02-14T22:54:12.422Z,40.90
2023-02-14T22:56:51.511Z,45.30
2023-02-14T22:59:21.640Z,44.40
2023-02-14T23:01:50.951Z,43.00
2023-02-14T23:04:21.596Z,42.10
2023-02-14T23:06:49.444Z,34.90
2023-02-14T23:09:17.317Z,40.80
2023-02-14T23:11:46.399Z,44.40
2023-02-14T23:14:34.025Z,44.10
2023-02-14T23:17:14.428Z,39.10
2023-02-14T23:20:01.212Z,39.80
2023-02-14T23:22:40.178Z,38.90
2023-02-14T23:25:10.838Z,36.60
2023-02-14T23:27:44.526Z,42.10
2023-02-14T23:30:15.924Z,35.00
2023-02-14T23:32:44.195Z,40.20
2023-02-14T23:35:11.918Z,40.40
2023-02-14T23:37:39.835Z,33.80
2023-02-14T23:40:08.391Z,37.10
2023-02-14T23:42:36.300Z,35.30
2023-02-14T23:45:22.903Z,35.70
2023-02-14T23:47:50.610Z,39.80
2023-02-14T23:50:18.571Z,34.20
2023-02-14T23:52:46.238Z,33.40
2023-02-14T23:55:13.887Z,34.10
2023-02-14T23:57:41.695Z,31.80
